sensor_id;sensor_type;location;lat;lon;timestamp;P1;durP1;ratioP1;P2;durP2;ratioP2
69170;SDS011;56279;47.902;12.308;2023-05-23T00:00:02;12.18;;;7.05;;
69170;SDS011;56279;47.902;12.308;2023-05-23T00:02:13;13.40;;;6.88;;
69170;SDS011;56279;47.902;12.308;2023-05-23T00:04:15;15.05;;;8.23;;
69170;SDS011;56279;47.902;12.308;2023-05-23T00:06:19;13.50;;;7.77;;
69170;SDS011;56279;47.902;12.308;2023-05-23T00:08:23;12.75;;;7.57;;
69170;SDS011;56279;47.902;12.308;2023-05-23T00:10:24;13.73;;;7.50;;
69170;SDS011;56279;47.902;12.308;2023-05-23T00:12:27;10.45;;;6.35;;
69170;SDS011;56279;47.902;12.308;2023-05-23T00:14:30;12.85;;;7.53;;
69170;SDS011;56279;47.902;12.308;2023-05-23T00:16:33;12.10;;;7.40;;
69170;SDS011;56279;47.902;12.308;2023-05-23T00:18:35;12.55;;;7.95;;
69170;SDS011;56279;47.902;12.308;2023-05-23T00:20:40;13.38;;;7.35;;
69170;SDS011;56279;47.902;12.308;2023-05-23T00:22:43;13.00;;;7.30;;
69170;SDS011;56279;47.902;12.308;2023-05-23T00:24:44;11.68;;;6.72;;
69170;SDS011;56279;47.902;12.308;2023-05-23T00:26:45;12.10;;;6.80;;
69170;SDS011;56279;47.902;12.308;2023-05-23T00:28:47;10.85;;;6.68;;
69170;SDS011;56279;47.902;12.308;2023-05-23T00:30:48;16.58;;;6.85;;
69170;SDS011;56279;47.902;12.308;2023-05-23T00:32:50;11.02;;;7.10;;
69170;SDS011;56279;47.902;12.308;2023-05-23T00:34:55;11.35;;;7.07;;
69170;SDS011;56279;47.902;12.308;2023-05-23T00:36:57;12.33;;;7.30;;
69170;SDS011;56279;47.902;12.308;2023-05-23T00:38:58;13.75;;;7.22;;
69170;SDS011;56279;47.902;12.308;2023-05-23T00:41:02;14.93;;;7.60;;
69170;SDS011;56279;47.902;12.308;2023-05-23T00:43:05;13.02;;;7.97;;
69170;SDS011;56279;47.902;12.308;2023-05-23T00:45:09;13.45;;;7.57;;
69170;SDS011;56279;47.902;12.308;2023-05-23T00:47:12;13.77;;;8.13;;
69170;SDS011;56279;47.902;12.308;2023-05-23T00:49:13;13.20;;;7.35;;
69170;SDS011;56279;47.902;12.308;2023-05-23T00:51:15;13.27;;;7.00;;
69170;SDS011;56279;47.902;12.308;2023-05-23T00:53:17;12.95;;;7.47;;
69170;SDS011;56279;47.902;12.308;2023-05-23T00:55:20;16.67;;;8.05;;
69170;SDS011;56279;47.902;12.308;2023-05-23T00:59:55;12.55;;;7.57;;
69170;SDS011;56279;47.902;12.308;2023-05-23T01:01:57;13.00;;;7.93;;
69170;SDS011;56279;47.902;12.308;2023-05-23T01:04:00;11.50;;;7.32;;
69170;SDS011;56279;47.902;12.308;2023-05-23T01:06:02;12.48;;;7.47;;
69170;SDS011;56279;47.902;12.308;2023-05-23T01:08:04;13.30;;;7.77;;
69170;SDS011;56279;47.902;12.308;2023-05-23T01:10:06;15.00;;;8.00;;
69170;SDS011;56279;47.902;12.308;2023-05-23T01:14:48;13.27;;;8.15;;
69170;SDS011;56279;47.902;12.308;2023-05-23T01:16:57;14.15;;;7.70;;
69170;SDS011;56279;47.902;12.308;2023-05-23T01:19:16;11.97;;;7.50;;
69170;SDS011;56279;47.902;12.308;2023-05-23T01:21:32;13.35;;;7.55;;
69170;SDS011;56279;47.902;12.308;2023-05-23T01:28:24;13.57;;;8.40;;
69170;SDS011;56279;47.902;12.308;2023-05-23T01:30:34;14.53;;;7.83;;
69170;SDS011;56279;47.902;12.308;2023-05-23T01:32:39;14.25;;;8.20;;
69170;SDS011;56279;47.902;12.308;2023-05-23T01:34:42;15.52;;;8.00;;
69170;SDS011;56279;47.902;12.308;2023-05-23T01:36:45;13.18;;;7.93;;
69170;SDS011;56279;47.902;12.308;2023-05-23T01:38:50;12.55;;;7.95;;
69170;SDS011;56279;47.902;12.308;2023-05-23T01:40:52;14.17;;;8.07;;
69170;SDS011;56279;47.902;12.308;2023-05-23T01:42:55;14.25;;;9.07;;
69170;SDS011;56279;47.902;12.308;2023-05-23T01:45:00;12.05;;;8.23;;
69170;SDS011;56279;47.902;12.308;2023-05-23T01:47:01;12.27;;;7.63;;
69170;SDS011;56279;47.902;12.308;2023-05-23T01:49:07;15.27;;;8.00;;
69170;SDS011;56279;47.902;12.308;2023-05-23T01:51:11;11.90;;;7.73;;
69170;SDS011;56279;47.902;12.308;2023-05-23T01:53:14;14.20;;;7.75;;
69170;SDS011;56279;47.902;12.308;2023-05-23T01:55:21;15.13;;;8.85;;
69170;SDS011;56279;47.902;12.308;2023-05-23T01:57:30;13.63;;;7.28;;
69170;SDS011;56279;47.902;12.308;2023-05-23T01:59:33;13.48;;;7.90;;
69170;SDS011;56279;47.902;12.308;2023-05-23T02:01:35;13.70;;;7.93;;
69170;SDS011;56279;47.902;12.308;2023-05-23T02:03:38;13.82;;;7.95;;
69170;SDS011;56279;47.902;12.308;2023-05-23T02:05:41;12.27;;;7.80;;
69170;SDS011;56279;47.902;12.308;2023-05-23T02:07:43;12.70;;;7.72;;
69170;SDS011;56279;47.902;12.308;2023-05-23T02:09:44;13.38;;;7.95;;
69170;SDS011;56279;47.902;12.308;2023-05-23T02:11:50;12.47;;;7.93;;
69170;SDS011;56279;47.902;12.308;2023-05-23T02:13:52;13.07;;;7.90;;
69170;SDS011;56279;47.902;12.308;2023-05-23T02:15:53;11.70;;;7.30;;
69170;SDS011;56279;47.902;12.308;2023-05-23T02:17:55;14.60;;;8.10;;
69170;SDS011;56279;47.902;12.308;2023-05-23T02:19:57;13.57;;;7.72;;
69170;SDS011;56279;47.902;12.308;2023-05-23T02:21:58;14.57;;;7.57;;
69170;SDS011;56279;47.902;12.308;2023-05-23T02:24:00;12.48;;;8.10;;
69170;SDS011;56279;47.902;12.308;2023-05-23T02:26:01;13.90;;;7.25;;
69170;SDS011;56279;47.902;12.308;2023-05-23T02:28:03;13.63;;;7.32;;
69170;SDS011;56279;47.902;12.308;2023-05-23T02:30:04;14.10;;;8.25;;
69170;SDS011;56279;47.902;12.308;2023-05-23T02:32:07;10.53;;;6.93;;
69170;SDS011;56279;47.902;12.308;2023-05-23T02:34:08;12.30;;;7.85;;
69170;SDS011;56279;47.902;12.308;2023-05-23T02:36:09;12.57;;;8.30;;
69170;SDS011;56279;47.902;12.308;2023-05-23T02:38:11;13.73;;;7.65;;
69170;SDS011;56279;47.902;12.308;2023-05-23T02:40:15;13.00;;;7.80;;
69170;SDS011;56279;47.902;12.308;2023-05-23T02:42:16;11.63;;;7.47;;
69170;SDS011;56279;47.902;12.308;2023-05-23T02:44:18;13.63;;;8.05;;
69170;SDS011;56279;47.902;12.308;2023-05-23T02:46:25;12.20;;;7.40;;
69170;SDS011;56279;47.902;12.308;2023-05-23T02:48:26;11.38;;;7.15;;
69170;SDS011;56279;47.902;12.308;2023-05-23T02:50:28;14.18;;;7.55;;
69170;SDS011;56279;47.902;12.308;2023-05-23T02:52:30;13.37;;;7.93;;
69170;SDS011;56279;47.902;12.308;2023-05-23T03:00:14;13.48;;;7.68;;
69170;SDS011;56279;47.902;12.308;2023-05-23T03:02:20;12.93;;;7.63;;
69170;SDS011;56279;47.902;12.308;2023-05-23T03:04:22;13.33;;;7.77;;
69170;SDS011;56279;47.902;12.308;2023-05-23T03:06:24;12.13;;;8.00;;
69170;SDS011;56279;47.902;12.308;2023-05-23T03:08:27;12.52;;;7.95;;
69170;SDS011;56279;47.902;12.308;2023-05-23T03:10:29;14.05;;;8.18;;
69170;SDS011;56279;47.902;12.308;2023-05-23T03:12:30;11.95;;;7.18;;
69170;SDS011;56279;47.902;12.308;2023-05-23T03:14:32;11.67;;;6.90;;
69170;SDS011;56279;47.902;12.308;2023-05-23T03:16:34;17.38;;;7.43;;
69170;SDS011;56279;47.902;12.308;2023-05-23T03:18:37;12.77;;;8.52;;
69170;SDS011;56279;47.902;12.308;2023-05-23T03:20:41;13.35;;;7.85;;
69170;SDS011;56279;47.902;12.308;2023-05-23T03:22:44;12.32;;;7.63;;
69170;SDS011;56279;47.902;12.308;2023-05-23T03:24:45;11.80;;;7.13;;
69170;SDS011;56279;47.902;12.308;2023-05-23T03:26:47;13.43;;;7.22;;
69170;SDS011;56279;47.902;12.308;2023-05-23T03:28:48;14.70;;;8.32;;
69170;SDS011;56279;47.902;12.308;2023-05-23T03:30:54;12.18;;;7.43;;
69170;SDS011;56279;47.902;12.308;2023-05-23T03:32:57;11.65;;;7.43;;
69170;SDS011;56279;47.902;12.308;2023-05-23T03:34:59;14.07;;;8.50;;
69170;SDS011;56279;47.902;12.308;2023-05-23T03:37:00;13.38;;;7.60;;
69170;SDS011;56279;47.902;12.308;2023-05-23T03:39:02;11.30;;;7.20;;
69170;SDS011;56279;47.902;12.308;2023-05-23T03:41:06;12.70;;;7.55;;
69170;SDS011;56279;47.902;12.308;2023-05-23T03:43:07;12.75;;;7.57;;
69170;SDS011;56279;47.902;12.308;2023-05-23T03:45:12;11.10;;;6.80;;
69170;SDS011;56279;47.902;12.308;2023-05-23T03:47:13;13.88;;;7.68;;
69170;SDS011;56279;47.902;12.308;2023-05-23T03:49:19;10.98;;;7.15;;
69170;SDS011;56279;47.902;12.308;2023-05-23T03:51:23;12.07;;;7.18;;
69170;SDS011;56279;47.902;12.308;2023-05-23T03:53:28;11.68;;;6.95;;
69170;SDS011;56279;47.902;12.308;2023-05-23T03:55:29;11.83;;;7.40;;
69170;SDS011;56279;47.902;12.308;2023-05-23T03:57:40;13.45;;;7.28;;
69170;SDS011;56279;47.902;12.308;2023-05-23T03:59:41;10.50;;;6.47;;
69170;SDS011;56279;47.902;12.308;2023-05-23T04:01:45;11.45;;;7.30;;
69170;SDS011;56279;47.902;12.308;2023-05-23T04:03:47;13.13;;;7.53;;
69170;SDS011;56279;47.902;12.308;2023-05-23T04:08:19;11.45;;;6.78;;
69170;SDS011;56279;47.902;12.308;2023-05-23T04:10:24;13.68;;;8.02;;
69170;SDS011;56279;47.902;12.308;2023-05-23T04:12:25;11.27;;;7.00;;
69170;SDS011;56279;47.902;12.308;2023-05-23T04:14:26;12.35;;;7.38;;
69170;SDS011;56279;47.902;12.308;2023-05-23T04:16:29;12.40;;;7.50;;
69170;SDS011;56279;47.902;12.308;2023-05-23T04:18:34;12.55;;;7.55;;
69170;SDS011;56279;47.902;12.308;2023-05-23T04:20:40;12.05;;;7.70;;
69170;SDS011;56279;47.902;12.308;2023-05-23T04:22:42;13.38;;;8.13;;
69170;SDS011;56279;47.902;12.308;2023-05-23T04:24:43;15.82;;;8.10;;
69170;SDS011;56279;47.902;12.308;2023-05-23T04:26:45;13.67;;;8.10;;
69170;SDS011;56279;47.902;12.308;2023-05-23T04:28:46;13.32;;;8.38;;
69170;SDS011;56279;47.902;12.308;2023-05-23T04:30:49;13.63;;;8.40;;
69170;SDS011;56279;47.902;12.308;2023-05-23T04:32:54;15.20;;;8.57;;
69170;SDS011;56279;47.902;12.308;2023-05-23T04:34:57;14.20;;;8.45;;
69170;SDS011;56279;47.902;12.308;2023-05-23T04:37:02;14.13;;;8.63;;
69170;SDS011;56279;47.902;12.308;2023-05-23T04:39:04;17.17;;;8.75;;
69170;SDS011;56279;47.902;12.308;2023-05-23T04:41:09;14.02;;;8.77;;
69170;SDS011;56279;47.902;12.308;2023-05-23T04:43:22;12.05;;;8.05;;
69170;SDS011;56279;47.902;12.308;2023-05-23T04:45:31;13.90;;;8.73;;
69170;SDS011;56279;47.902;12.308;2023-05-23T04:47:52;13.53;;;8.27;;
69170;SDS011;56279;47.902;12.308;2023-05-23T04:50:07;17.25;;;8.90;;
69170;SDS011;56279;47.902;12.308;2023-05-23T04:52:10;13.82;;;8.68;;
69170;SDS011;56279;47.902;12.308;2023-05-23T04:54:15;13.52;;;8.25;;
69170;SDS011;56279;47.902;12.308;2023-05-23T04:56:16;15.48;;;8.52;;
69170;SDS011;56279;47.902;12.308;2023-05-23T04:58:20;14.83;;;8.27;;
69170;SDS011;56279;47.902;12.308;2023-05-23T05:00:23;14.05;;;8.55;;
69170;SDS011;56279;47.902;12.308;2023-05-23T05:02:25;16.05;;;8.43;;
69170;SDS011;56279;47.902;12.308;2023-05-23T05:04:27;13.70;;;9.02;;
69170;SDS011;56279;47.902;12.308;2023-05-23T05:06:28;16.88;;;9.07;;
69170;SDS011;56279;47.902;12.308;2023-05-23T05:08:29;15.23;;;8.80;;
69170;SDS011;56279;47.902;12.308;2023-05-23T05:10:31;17.02;;;8.63;;
69170;SDS011;56279;47.902;12.308;2023-05-23T05:12:33;17.98;;;8.80;;
69170;SDS011;56279;47.902;12.308;2023-05-23T05:14:35;15.48;;;8.43;;
69170;SDS011;56279;47.902;12.308;2023-05-23T05:16:37;15.40;;;8.88;;
69170;SDS011;56279;47.902;12.308;2023-05-23T05:18:38;14.07;;;8.27;;
69170;SDS011;56279;47.902;12.308;2023-05-23T05:20:40;15.75;;;8.95;;
69170;SDS011;56279;47.902;12.308;2023-05-23T05:22:42;14.38;;;9.10;;
69170;SDS011;56279;47.902;12.308;2023-05-23T05:24:46;14.90;;;8.43;;
69170;SDS011;56279;47.902;12.308;2023-05-23T05:26:48;13.23;;;8.43;;
69170;SDS011;56279;47.902;12.308;2023-05-23T05:28:49;13.40;;;7.83;;
69170;SDS011;56279;47.902;12.308;2023-05-23T05:30:52;14.48;;;8.35;;
69170;SDS011;56279;47.902;12.308;2023-05-23T05:32:57;13.23;;;8.07;;
69170;SDS011;56279;47.902;12.308;2023-05-23T05:35:01;14.07;;;8.65;;
69170;SDS011;56279;47.902;12.308;2023-05-23T05:37:06;14.00;;;7.88;;
69170;SDS011;56279;47.902;12.308;2023-05-23T05:39:10;15.70;;;9.40;;
69170;SDS011;56279;47.902;12.308;2023-05-23T05:41:13;14.18;;;8.70;;
69170;SDS011;56279;47.902;12.308;2023-05-23T05:43:20;12.20;;;8.05;;
69170;SDS011;56279;47.902;12.308;2023-05-23T05:45:22;14.00;;;8.82;;
69170;SDS011;56279;47.902;12.308;2023-05-23T05:47:38;13.27;;;8.15;;
69170;SDS011;56279;47.902;12.308;2023-05-23T05:49:39;13.23;;;7.90;;
69170;SDS011;56279;47.902;12.308;2023-05-23T05:51:42;14.02;;;7.85;;
69170;SDS011;56279;47.902;12.308;2023-05-23T05:53:43;14.55;;;8.30;;
69170;SDS011;56279;47.902;12.308;2023-05-23T05:55:44;13.25;;;7.60;;
69170;SDS011;56279;47.902;12.308;2023-05-23T05:57:46;14.50;;;8.98;;
69170;SDS011;56279;47.902;12.308;2023-05-23T05:59:48;14.40;;;8.20;;
69170;SDS011;56279;47.902;12.308;2023-05-23T06:01:50;12.55;;;8.05;;
69170;SDS011;56279;47.902;12.308;2023-05-23T06:03:52;13.15;;;8.27;;
69170;SDS011;56279;47.902;12.308;2023-05-23T06:05:54;12.85;;;8.35;;
69170;SDS011;56279;47.902;12.308;2023-05-23T06:07:55;13.20;;;8.18;;
69170;SDS011;56279;47.902;12.308;2023-05-23T06:09:58;17.83;;;8.10;;
69170;SDS011;56279;47.902;12.308;2023-05-23T06:12:00;14.38;;;8.05;;
69170;SDS011;56279;47.902;12.308;2023-05-23T06:14:02;13.23;;;8.27;;
69170;SDS011;56279;47.902;12.308;2023-05-23T06:16:04;13.57;;;8.18;;
69170;SDS011;56279;47.902;12.308;2023-05-23T06:18:06;13.10;;;7.95;;
69170;SDS011;56279;47.902;12.308;2023-05-23T06:20:07;13.20;;;8.43;;
69170;SDS011;56279;47.902;12.308;2023-05-23T06:22:12;13.70;;;8.30;;
69170;SDS011;56279;47.902;12.308;2023-05-23T06:24:13;13.30;;;8.57;;
69170;SDS011;56279;47.902;12.308;2023-05-23T06:26:15;13.82;;;8.27;;
69170;SDS011;56279;47.902;12.308;2023-05-23T06:28:16;13.25;;;8.20;;
69170;SDS011;56279;47.902;12.308;2023-05-23T06:30:20;13.90;;;9.27;;
69170;SDS011;56279;47.902;12.308;2023-05-23T06:32:23;13.00;;;8.20;;
69170;SDS011;56279;47.902;12.308;2023-05-23T06:34:25;14.18;;;9.00;;
69170;SDS011;56279;47.902;12.308;2023-05-23T06:36:26;13.98;;;8.68;;
69170;SDS011;56279;47.902;12.308;2023-05-23T06:38:30;15.43;;;9.02;;
69170;SDS011;56279;47.902;12.308;2023-05-23T06:40:33;14.23;;;8.57;;
69170;SDS011;56279;47.902;12.308;2023-05-23T06:42:37;14.32;;;8.32;;
69170;SDS011;56279;47.902;12.308;2023-05-23T06:44:53;13.35;;;9.00;;
69170;SDS011;56279;47.902;12.308;2023-05-23T06:46:54;14.60;;;8.48;;
69170;SDS011;56279;47.902;12.308;2023-05-23T06:48:57;13.43;;;8.52;;
69170;SDS011;56279;47.902;12.308;2023-05-23T06:50:59;12.87;;;8.23;;
69170;SDS011;56279;47.902;12.308;2023-05-23T06:53:00;14.77;;;8.50;;
69170;SDS011;56279;47.902;12.308;2023-05-23T06:55:02;17.30;;;9.15;;
69170;SDS011;56279;47.902;12.308;2023-05-23T06:57:03;15.65;;;9.30;;
69170;SDS011;56279;47.902;12.308;2023-05-23T06:59:06;13.88;;;8.75;;
69170;SDS011;56279;47.902;12.308;2023-05-23T07:01:07;15.43;;;8.40;;
69170;SDS011;56279;47.902;12.308;2023-05-23T07:03:16;14.63;;;8.93;;
69170;SDS011;56279;47.902;12.308;2023-05-23T07:05:19;16.38;;;8.98;;
69170;SDS011;56279;47.902;12.308;2023-05-23T07:07:23;15.05;;;8.93;;
69170;SDS011;56279;47.902;12.308;2023-05-23T07:09:24;16.80;;;8.45;;
69170;SDS011;56279;47.902;12.308;2023-05-23T07:11:34;13.93;;;8.90;;
69170;SDS011;56279;47.902;12.308;2023-05-23T07:13:36;14.70;;;8.38;;
69170;SDS011;56279;47.902;12.308;2023-05-23T07:15:38;19.80;;;9.40;;
69170;SDS011;56279;47.902;12.308;2023-05-23T07:17:44;14.30;;;8.98;;
69170;SDS011;56279;47.902;12.308;2023-05-23T07:19:46;17.38;;;9.60;;
69170;SDS011;56279;47.902;12.308;2023-05-23T07:21:47;16.23;;;8.40;;
69170;SDS011;56279;47.902;12.308;2023-05-23T07:23:51;17.23;;;9.82;;
69170;SDS011;56279;47.902;12.308;2023-05-23T07:25:53;15.43;;;9.68;;
69170;SDS011;56279;47.902;12.308;2023-05-23T07:28:00;16.42;;;9.52;;
69170;SDS011;56279;47.902;12.308;2023-05-23T07:30:02;15.77;;;9.60;;
69170;SDS011;56279;47.902;12.308;2023-05-23T07:32:04;14.20;;;9.13;;
69170;SDS011;56279;47.902;12.308;2023-05-23T07:34:06;15.35;;;9.55;;
69170;SDS011;56279;47.902;12.308;2023-05-23T07:36:15;16.40;;;9.40;;
69170;SDS011;56279;47.902;12.308;2023-05-23T07:38:16;16.50;;;9.32;;
69170;SDS011;56279;47.902;12.308;2023-05-23T07:40:18;16.65;;;9.52;;
69170;SDS011;56279;47.902;12.308;2023-05-23T07:42:20;15.40;;;9.37;;
69170;SDS011;56279;47.902;12.308;2023-05-23T07:44:21;15.43;;;9.25;;
69170;SDS011;56279;47.902;12.308;2023-05-23T07:46:22;16.20;;;9.20;;
69170;SDS011;56279;47.902;12.308;2023-05-23T07:48:24;14.80;;;9.77;;
69170;SDS011;56279;47.902;12.308;2023-05-23T07:50:27;15.80;;;9.27;;
69170;SDS011;56279;47.902;12.308;2023-05-23T07:52:29;14.20;;;9.23;;
69170;SDS011;56279;47.902;12.308;2023-05-23T07:54:32;17.77;;;9.98;;
69170;SDS011;56279;47.902;12.308;2023-05-23T07:56:34;15.98;;;9.07;;
69170;SDS011;56279;47.902;12.308;2023-05-23T07:58:38;16.55;;;9.90;;
69170;SDS011;56279;47.902;12.308;2023-05-23T08:00:40;15.38;;;9.45;;
69170;SDS011;56279;47.902;12.308;2023-05-23T08:02:50;15.30;;;9.70;;
69170;SDS011;56279;47.902;12.308;2023-05-23T08:04:59;17.95;;;10.15;;
69170;SDS011;56279;47.902;12.308;2023-05-23T08:07:01;16.98;;;10.60;;
69170;SDS011;56279;47.902;12.308;2023-05-23T08:09:11;16.73;;;10.02;;
69170;SDS011;56279;47.902;12.308;2023-05-23T08:11:17;15.77;;;9.75;;
69170;SDS011;56279;47.902;12.308;2023-05-23T08:13:23;18.03;;;10.17;;
69170;SDS011;56279;47.902;12.308;2023-05-23T08:15:44;15.63;;;10.07;;
69170;SDS011;56279;47.902;12.308;2023-05-23T08:17:51;19.85;;;10.77;;
69170;SDS011;56279;47.902;12.308;2023-05-23T08:19:56;15.93;;;9.98;;
69170;SDS011;56279;47.902;12.308;2023-05-23T08:21:58;15.43;;;10.18;;
69170;SDS011;56279;47.902;12.308;2023-05-23T08:23:59;17.17;;;11.07;;
69170;SDS011;56279;47.902;12.308;2023-05-23T08:26:01;19.92;;;11.25;;
69170;SDS011;56279;47.902;12.308;2023-05-23T08:28:02;17.02;;;10.50;;
69170;SDS011;56279;47.902;12.308;2023-05-23T08:30:24;16.98;;;10.25;;
69170;SDS011;56279;47.902;12.308;2023-05-23T08:32:25;16.52;;;10.52;;
69170;SDS011;56279;47.902;12.308;2023-05-23T08:34:28;17.97;;;10.60;;
69170;SDS011;56279;47.902;12.308;2023-05-23T08:36:29;15.93;;;10.43;;
69170;SDS011;56279;47.902;12.308;2023-05-23T08:38:34;18.13;;;10.63;;
69170;SDS011;56279;47.902;12.308;2023-05-23T08:40:50;17.52;;;10.57;;
69170;SDS011;56279;47.902;12.308;2023-05-23T08:42:56;16.85;;;11.40;;
69170;SDS011;56279;47.902;12.308;2023-05-23T08:44:57;17.30;;;11.53;;
69170;SDS011;56279;47.902;12.308;2023-05-23T08:47:00;18.00;;;10.90;;
69170;SDS011;56279;47.902;12.308;2023-05-23T08:49:26;16.92;;;11.27;;
69170;SDS011;56279;47.902;12.308;2023-05-23T08:51:28;21.25;;;11.07;;
69170;SDS011;56279;47.902;12.308;2023-05-23T08:53:33;18.85;;;11.40;;
69170;SDS011;56279;47.902;12.308;2023-05-23T08:55:40;20.20;;;11.47;;
69170;SDS011;56279;47.902;12.308;2023-05-23T08:57:42;21.38;;;11.48;;
69170;SDS011;56279;47.902;12.308;2023-05-23T08:59:58;19.13;;;12.63;;
69170;SDS011;56279;47.902;12.308;2023-05-23T09:02:00;18.65;;;12.25;;
69170;SDS011;56279;47.902;12.308;2023-05-23T09:04:03;21.13;;;11.80;;
69170;SDS011;56279;47.902;12.308;2023-05-23T09:06:29;22.00;;;11.37;;
69170;SDS011;56279;47.902;12.308;2023-05-23T09:08:32;19.30;;;11.48;;
69170;SDS011;56279;47.902;12.308;2023-05-23T09:10:34;18.95;;;12.10;;
69170;SDS011;56279;47.902;12.308;2023-05-23T09:12:37;19.27;;;11.43;;
69170;SDS011;56279;47.902;12.308;2023-05-23T09:14:39;21.02;;;10.93;;
69170;SDS011;56279;47.902;12.308;2023-05-23T09:16:45;18.20;;;11.27;;
69170;SDS011;56279;47.902;12.308;2023-05-23T09:18:50;18.33;;;10.93;;
69170;SDS011;56279;47.902;12.308;2023-05-23T09:20:54;16.98;;;10.32;;
69170;SDS011;56279;47.902;12.308;2023-05-23T09:22:55;19.70;;;10.52;;
69170;SDS011;56279;47.902;12.308;2023-05-23T09:24:57;17.23;;;10.25;;
69170;SDS011;56279;47.902;12.308;2023-05-23T09:26:58;18.40;;;11.10;;
69170;SDS011;56279;47.902;12.308;2023-05-23T09:28:59;17.45;;;11.02;;
69170;SDS011;56279;47.902;12.308;2023-05-23T09:31:01;16.02;;;10.57;;
69170;SDS011;56279;47.902;12.308;2023-05-23T09:33:05;17.52;;;11.18;;
69170;SDS011;56279;47.902;12.308;2023-05-23T09:35:06;18.17;;;10.35;;
69170;SDS011;56279;47.902;12.308;2023-05-23T09:37:12;18.53;;;9.87;;
69170;SDS011;56279;47.902;12.308;2023-05-23T09:39:18;14.23;;;9.40;;
69170;SDS011;56279;47.902;12.308;2023-05-23T09:41:21;12.95;;;7.95;;
69170;SDS011;56279;47.902;12.308;2023-05-23T09:43:27;11.15;;;7.13;;
69170;SDS011;56279;47.902;12.308;2023-05-23T09:45:29;14.68;;;7.30;;
69170;SDS011;56279;47.902;12.308;2023-05-23T09:47:31;11.80;;;6.70;;
69170;SDS011;56279;47.902;12.308;2023-05-23T09:49:33;11.02;;;7.30;;
69170;SDS011;56279;47.902;12.308;2023-05-23T09:51:34;12.15;;;7.30;;
69170;SDS011;56279;47.902;12.308;2023-05-23T09:53:36;11.00;;;6.82;;
69170;SDS011;56279;47.902;12.308;2023-05-23T09:55:37;11.13;;;6.70;;
69170;SDS011;56279;47.902;12.308;2023-05-23T09:57:41;10.50;;;6.23;;
69170;SDS011;56279;47.902;12.308;2023-05-23T09:59:52;10.93;;;6.50;;
69170;SDS011;56279;47.902;12.308;2023-05-23T10:01:55;11.40;;;6.70;;
69170;SDS011;56279;47.902;12.308;2023-05-23T10:03:58;10.73;;;6.50;;
69170;SDS011;56279;47.902;12.308;2023-05-23T10:06:05;11.30;;;7.32;;
69170;SDS011;56279;47.902;12.308;2023-05-23T10:32:00;10.97;;;6.80;;
69170;SDS011;56279;47.902;12.308;2023-05-23T10:36:28;11.25;;;6.85;;
69170;SDS011;56279;47.902;12.308;2023-05-23T10:38:53;13.45;;;7.47;;
69170;SDS011;56279;47.902;12.308;2023-05-23T10:41:24;11.05;;;6.53;;
69170;SDS011;56279;47.902;12.308;2023-05-23T10:43:43;11.10;;;6.67;;
69170;SDS011;56279;47.902;12.308;2023-05-23T10:45:45;11.27;;;6.63;;
69170;SDS011;56279;47.902;12.308;2023-05-23T10:47:51;11.95;;;6.07;;
69170;SDS011;56279;47.902;12.308;2023-05-23T10:49:53;13.13;;;6.78;;
69170;SDS011;56279;47.902;12.308;2023-05-23T10:51:55;11.65;;;7.28;;
69170;SDS011;56279;47.902;12.308;2023-05-23T10:53:57;10.97;;;6.20;;
69170;SDS011;56279;47.902;12.308;2023-05-23T10:55:59;11.07;;;6.68;;
69170;SDS011;56279;47.902;12.308;2023-05-23T10:58:18;10.77;;;6.10;;
69170;SDS011;56279;47.902;12.308;2023-05-23T11:00:21;11.50;;;6.15;;
69170;SDS011;56279;47.902;12.308;2023-05-23T11:02:25;12.27;;;6.55;;
69170;SDS011;56279;47.902;12.308;2023-05-23T11:04:28;9.23;;;5.80;;
69170;SDS011;56279;47.902;12.308;2023-05-23T11:06:40;10.27;;;5.95;;
69170;SDS011;56279;47.902;12.308;2023-05-23T11:08:47;11.10;;;6.10;;
69170;SDS011;56279;47.902;12.308;2023-05-23T11:15:55;11.20;;;6.17;;
69170;SDS011;56279;47.902;12.308;2023-05-23T11:17:57;9.10;;;5.55;;
69170;SDS011;56279;47.902;12.308;2023-05-23T11:20:00;12.00;;;6.05;;
69170;SDS011;56279;47.902;12.308;2023-05-23T11:22:09;15.15;;;8.88;;
69170;SDS011;56279;47.902;12.308;2023-05-23T11:24:11;12.65;;;6.25;;
69170;SDS011;56279;47.902;12.308;2023-05-23T11:26:28;14.03;;;7.50;;
69170;SDS011;56279;47.902;12.308;2023-05-23T11:28:31;18.30;;;10.30;;
69170;SDS011;56279;47.902;12.308;2023-05-23T11:30:59;10.68;;;6.70;;
69170;SDS011;56279;47.902;12.308;2023-05-23T11:33:05;9.60;;;5.82;;
69170;SDS011;56279;47.902;12.308;2023-05-23T11:35:13;9.60;;;5.20;;
69170;SDS011;56279;47.902;12.308;2023-05-23T11:37:16;10.00;;;5.53;;
69170;SDS011;56279;47.902;12.308;2023-05-23T11:39:19;9.40;;;4.90;;
69170;SDS011;56279;47.902;12.308;2023-05-23T11:41:21;9.55;;;5.13;;
69170;SDS011;56279;47.902;12.308;2023-05-23T11:53:26;8.05;;;4.68;;
69170;SDS011;56279;47.902;12.308;2023-05-23T11:55:28;7.68;;;4.65;;
69170;SDS011;56279;47.902;12.308;2023-05-23T11:57:38;9.35;;;5.18;;
69170;SDS011;56279;47.902;12.308;2023-05-23T11:59:39;8.57;;;4.53;;
69170;SDS011;56279;47.902;12.308;2023-05-23T12:01:41;10.00;;;5.10;;
69170;SDS011;56279;47.902;12.308;2023-05-23T12:03:47;8.70;;;4.90;;
69170;SDS011;56279;47.902;12.308;2023-05-23T12:05:53;7.93;;;4.88;;
69170;SDS011;56279;47.902;12.308;2023-05-23T12:07:55;8.93;;;5.60;;
69170;SDS011;56279;47.902;12.308;2023-05-23T12:09:59;10.97;;;5.40;;
69170;SDS011;56279;47.902;12.308;2023-05-23T12:12:00;8.13;;;4.82;;
69170;SDS011;56279;47.902;12.308;2023-05-23T12:14:03;10.77;;;5.80;;
69170;SDS011;56279;47.902;12.308;2023-05-23T12:16:06;10.18;;;5.75;;
69170;SDS011;56279;47.902;12.308;2023-05-23T12:18:08;9.70;;;5.85;;
69170;SDS011;56279;47.902;12.308;2023-05-23T12:20:10;9.47;;;6.17;;
69170;SDS011;56279;47.902;12.308;2023-05-23T12:22:15;10.52;;;6.18;;
69170;SDS011;56279;47.902;12.308;2023-05-23T12:24:23;10.68;;;6.28;;
69170;SDS011;56279;47.902;12.308;2023-05-23T12:26:27;9.93;;;5.63;;
69170;SDS011;56279;47.902;12.308;2023-05-23T13:08:56;12.70;;;7.30;;
69170;SDS011;56279;47.902;12.308;2023-05-23T13:10:58;16.13;;;8.02;;
69170;SDS011;56279;47.902;12.308;2023-05-23T13:12:59;14.10;;;7.20;;
69170;SDS011;56279;47.902;12.308;2023-05-23T13:15:02;11.93;;;7.00;;
69170;SDS011;56279;47.902;12.308;2023-05-23T13:17:06;11.68;;;7.15;;
69170;SDS011;56279;47.902;12.308;2023-05-23T13:19:07;13.00;;;6.63;;
69170;SDS011;56279;47.902;12.308;2023-05-23T13:21:09;13.35;;;6.53;;
69170;SDS011;56279;47.902;12.308;2023-05-23T13:23:10;10.52;;;6.85;;
69170;SDS011;56279;47.902;12.308;2023-05-23T18:09:16;10.80;;;6.47;;
69170;SDS011;56279;47.902;12.308;2023-05-23T18:11:18;13.80;;;6.88;;
69170;SDS011;56279;47.902;12.308;2023-05-23T18:13:19;11.98;;;7.32;;
69170;SDS011;56279;47.902;12.308;2023-05-23T18:15:21;13.68;;;7.35;;
69170;SDS011;56279;47.902;12.308;2023-05-23T18:17:22;13.48;;;7.03;;
69170;SDS011;56279;47.902;12.308;2023-05-23T18:19:24;15.00;;;8.20;;
69170;SDS011;56279;47.902;12.308;2023-05-23T18:21:28;12.88;;;7.07;;
69170;SDS011;56279;47.902;12.308;2023-05-23T18:23:46;12.88;;;8.00;;
69170;SDS011;56279;47.902;12.308;2023-05-23T18:25:49;14.68;;;8.15;;
69170;SDS011;56279;47.902;12.308;2023-05-23T18:27:52;16.25;;;8.70;;